SBOSBO VRN / LIPX
Speedbird OnlineSpeedbird Online VRN / LIPX

Verona Villafranca Airport
15:23 10.7°C

Location Villafranca, Italy
Latitude: 45.395699
Longitude: 10.8885
Web Airport Website | Wikipedia
Altitude 73 Meter / 239 Feet
Distance 1,043 KM / 648 Miles
from London.
Time Zone UTC +1 hours (Europe/Rome)
Codes IATA: VRN
ICAO: LIPX
Currency £1 equals EUR 1.14
Runways
RunwayLength (m)Surface
043068Asphalt
223068Asphalt
Radio
TypeDescriptionFrequency
APPGARDA APP124.45
APPGARDA APP36.23
GNDGND121.75
INFOPADOVA INFO123.25
TWRTWR118.65
Live ATC
METAR LIPX 311350Z 26010KT CAVOK 11/M01 Q1021
TAF TAF LIPX 311100Z 3112/0112 23006KT CAVOK BECMG 3122/3124 2000 BR TEMPO 0100/0107 0800 FZFG BKN003 BECMG 0108/0110 7000
Weather As Of 31 Jan 2023 15:23
Description Clear sky
Wind 19 km/h from West (260°)
Cloud Cover 0%
Precipitation Rain: none, Snow: none
Sunrise 07:39
Sunset 17:20
Lounges Catullo Club Lounge (Temporarily Closed), Departure Terminal
Rotations During the last 90 days there were
70 flights from LGW
70 flights to LGW



Support Speedbird Online

© 2017-2023 Speedbird Online